Date,TemperatureHighF,TemperatureAvgF,TemperatureLowF,DewpointHighF,DewpointAvgF,DewpointLowF,HumidityHigh,HumidityAvg,HumidityLow,PressureMaxIn,PressureMinIn,WindSpeedMaxMPH,WindSpeedAvgMPH,GustSpeedMaxMPH,PrecipitationSumIn
2013-9-1,108.1,89.6,75.6,76.3,68.2,63.3,79,53,29,29.12,29.00,5,1,7,0.00
2013-9-2,106.9,90.2,78.3,75.5,69.0,64.1,76,53,29,29.21,29.03,5,1,7,0.00
2013-9-3,106.3,87.3,72.5,75.4,68.1,62.8,86,57,27,29.21,29.06,6,1,12,0.00
2013-9-4,102.4,86.2,73.9,80.2,70.5,63.8,95,63,33,29.30,29.12,9,2,16,0.21
2013-9-5,102.6,87.6,75.9,76.4,70.0,63.8,86,60,34,29.36,29.18,8,2,12,0.00
2013-9-6,103.5,87.1,72.9,78.4,69.2,63.8,90,60,32,29.33,29.12,6,2,9,0.00
2013-9-7,102.6,85.3,71.8,77.5,70.0,64.6,90,64,32,29.27,29.09,12,2,17,0.00
2013-9-8,99.9,83.6,72.5,77.2,70.6,65.0,93,69,36,29.21,29.06,7,2,10,0.00
2013-9-9,98.2,80.9,71.6,75.0,70.2,64.7,92,73,40,29.24,29.09,12,2,21,0.00
2013-9-10,94.5,81.1,73.4,75.8,71.0,65.7,94,74,45,29.30,29.15,10,3,15,0.00
2013-9-11,99.3,85.0,75.4,78.0,68.7,59.1,90,63,30,29.36,29.18,6,2,9,0.00
2013-9-12,101.8,85.0,70.3,76.5,66.0,58.6,89,58,28,29.30,29.12,5,1,8,0.00
2013-9-13,106.2,84.6,70.9,72.5,65.9,59.7,83,59,27,29.21,29.03,6,1,8,0.00
2013-9-14,99.3,87.6,82.8,70.3,66.4,60.4,64,50,28,29.15,29.03,8,2,13,0.00
2013-9-15,96.3,84.8,74.1,74.6,68.7,63.6,87,61,39,29.24,29.12,6,2,9,0.00
2013-9-16,99.9,82.5,73.4,77.3,71.6,65.5,94,73,38,29.30,29.15,7,1,11,0.17
2013-9-17,94.6,82.2,74.5,79.2,72.2,66.2,96,75,46,29.30,29.12,7,1,11,0.00
2013-9-18,96.8,83.9,72.5,76.7,69.2,62.3,94,65,35,29.24,29.06,7,2,10,0.00
2013-9-19,93.9,81.0,76.1,79.5,73.6,68.1,93,80,47,29.18,29.00,9,1,12,0.04
2013-9-20,78.8,74.7,70.2,76.7,73.2,69.0,98,95,92,29.12,29.00,4,1,6,1.63
2013-9-21,91.9,76.0,63.3,69.4,61.1,48.7,97,66,30,29.18,29.06,4,1,7,0.00
2013-9-22,93.4,72.4,54.9,61.7,53.9,47.1,93,58,28,29.15,29.00,5,1,8,0.00
2013-9-23,95.4,74.6,55.9,62.6,55.9,52.7,91,59,27,29.09,28.97,5,1,7,0.00
2013-9-24,102.6,78.8,60.4,68.8,60.4,56.4,88,59,27,29.15,29.03,4,1,6,0.00
2013-9-25,101.1,81.0,64.4,70.6,62.6,56.2,90,58,31,29.12,28.94,6,1,9,0.00
2013-9-26,97.9,81.9,65.1,72.4,60.2,54.7,80,51,27,29.09,29.00,7,2,10,0.00
2013-9-27,91.4,81.0,74.5,77.5,74.0,69.8,92,80,58,29.12,29.00,11,3,14,0.00
2013-9-28,92.7,81.6,70.9,79.1,74.2,67.3,90,79,57,29.24,29.06,6,2,13,0.04
2013-9-29,83.7,70.3,64.2,67.6,63.5,59.1,93,80,48,29.33,29.12,3,1,5,0.00
2013-9-30,95.0,74.5,55.9,70.2,59.2,53.8,97,65,33,29.18,29.00,5,1,9,0.00